Barrowby, United Kingdom
Current Conditions -  °F | °C
As of 12:50 AM on Wednesday 26 Nov 2014 (Local Time) from EGYD Reporting Station
Overcast Overcast  
Wind Chill: 42°   Ceiling: 5000
Heat Index: 45°   Visibility: 6mi
Dew Point: 43°   Wind: 5mph
Humidity: 93%   Direction: 50°NE
Pressure: 30"   Gusts: NA
Location:  52.92°N, 0.69°W
Report Text: EGYD 260050Z AUTO 05004KT 9999 // FEW023/// OVC050/// 07/06 Q1016
Loading
Personal Weather Stations






























Interactive Weather Map New forecast layout! Learn more

10-Day Weather Forecast

Advertisements
Track Severe Weather on mobile